createdAt,value
2022-10-23T00:17:37.348Z,96.2
2022-10-23T00:37:44.593Z,96.5
2022-10-23T01:17:38.540Z,96.1
2022-10-23T01:37:37.232Z,96.6
2022-10-23T02:37:37.121Z,97.2
2022-10-23T02:57:37.023Z,97.4
2022-10-23T03:17:43.948Z,97.4
2022-10-23T03:57:43.909Z,97.6
2022-10-23T04:17:36.855Z,97.6
2022-10-23T04:37:44.105Z,97.7
2022-10-23T05:17:36.811Z,97.8
2022-10-23T05:37:36.674Z,97.7
2022-10-23T06:37:36.853Z,97.8
2022-10-23T06:57:36.507Z,97.5
2022-10-23T07:57:36.427Z,90.3
2022-10-23T08:17:36.423Z,84.5
2022-10-23T08:37:36.299Z,83.1
2022-10-23T09:57:43.265Z,71.6
2022-10-23T12:17:40.871Z,71.6
2022-10-23T12:57:40.837Z,75.3
2022-10-23T13:17:40.827Z,74.3
2022-10-23T13:37:47.585Z,75.6
2022-10-23T13:57:40.776Z,77.5
2022-10-23T14:17:35.524Z,79.3
2022-10-23T14:37:43.665Z,80.5
2022-10-23T14:57:47.399Z,80.4
2022-10-23T15:57:47.253Z,84.7
2022-10-23T16:17:47.219Z,86.3
2022-10-23T16:37:35.217Z,87.3
2022-10-23T16:57:35.141Z,87.7
2022-10-23T17:17:35.089Z,86.6
2022-10-23T17:37:40.014Z,84.9
2022-10-23T17:57:35.082Z,83.1
2022-10-23T18:17:35.019Z,82.1
2022-10-23T18:37:37.748Z,82.3
2022-10-23T18:57:35.115Z,83.1
2022-10-23T19:17:39.766Z,83.6
2022-10-23T19:37:39.726Z,84.3
2022-10-23T19:57:34.853Z,85.2
2022-10-23T20:17:39.724Z,85.8
2022-10-23T20:37:34.631Z,86.4
2022-10-23T21:17:39.505Z,87.2
2022-10-23T21:37:34.497Z,88.6
2022-10-23T21:57:46.438Z,89.8
2022-10-23T22:37:34.355Z,93.5
2022-10-23T22:57:39.283Z,94.3
2022-10-23T23:17:34.273Z,95.6
2022-10-23T23:37:34.251Z,96.4
2022-10-23T23:57:34.202Z,96.8
